Time;durP1;ratioP1;P1;durP2;ratioP2;P2;SDS_P1;SDS_P2;PMS_P1;PMS_P2;Temp;Humidity;BMP_temperature;BMP_pressure;BME280_temperature;BME280_humidity;BME280_pressure;Samples;Min_cycle;Max_cycle;Signal;HPM_P1;HPM_P2
2023/04/08 00:02:13;;;;;;;;;;;;;;;;;;5051209;28;43115;-92
2023/04/08 00:04:39;;;;;;;;;;;;;;;;;;5069948;28;42860;-85
2023/04/08 00:07:06;;;;;;;;;;;;;;;;;;5066032;28;42917;-88
2023/04/08 00:09:32;;;;;;;;;;;;;;;;;;5065049;28;42912;-88
2023/04/08 00:11:58;;;;;;;;;;;;;;;;;;5065335;28;43065;-89
2023/04/08 00:14:24;;;;;;;;;;;;;;;;;;5065041;28;44063;-87
2023/04/08 00:16:50;;;;;;;;;;;;;;;;;;5065057;28;43023;-89
2023/04/08 00:19:15;;;;;;;;;;;;;;;;;;5067122;28;43529;-92
2023/04/08 00:21:41;;;;;;;;;;;;;;;;;;5068878;28;43440;-92
2023/04/08 00:24:07;;;;;;;;;;;;;;;;;;5066830;28;43070;-93
2023/04/08 00:26:33;;;;;;;;;;;;;;;;;;5048590;28;42934;-93
2023/04/08 00:28:59;;;;;;;;;;;;;;;;;;5047187;28;45665;-93
2023/04/08 00:31:26;;;;;;;;;;;;;;;;;;5066223;28;42912;-91
2023/04/08 00:33:51;;;;;;;;;;;;;;;;;;5065095;28;42885;-91
2023/04/08 00:36:18;;;;;;;;;;;;;;;;;;5065872;28;43458;-92
2023/04/08 00:38:43;;;;;;;;;;;;;;;;;;5065493;28;43028;-90
2023/04/08 00:41:09;;;;;;;;;;;;;;;;;;5065805;28;42978;-92
2023/04/08 00:43:35;;;;;;;;;;;;;;;;;;5064286;28;43500;-89
2023/04/08 00:46:01;;;;;;;;;;;;;;;;;;5064278;28;42940;-90
2023/04/08 00:48:27;;;;;;;;;;;;;;;;;;5064568;28;42857;-90
2023/04/08 00:50:53;;;;;;;;;;;;;;;;;;5064585;28;43077;-88
2023/04/08 00:53:19;;;;;;;;;;;;;;;;;;5064729;28;42827;-90
2023/04/08 00:55:45;;;;;;;;;;;;;;;;;;5065005;28;42984;-90
2023/04/08 00:58:11;;;;;;;;;;;;;;;;;;5064610;28;43644;-91
2023/04/08 01:00:36;;;;;;;;;;;;;;;;;;5067238;28;43078;-92
2023/04/08 01:03:02;;;;;;;;;;;;;;;;;;5069191;28;42923;-89
2023/04/08 01:05:28;;;;;;;;;;;;;;;;;;5072093;28;42932;-93
2023/04/08 01:07:55;;;;;;;;;;;;;;;;;;5071897;28;43073;-91
2023/04/08 01:10:21;;;;;;;;;;;;;;;;;;5073406;28;43007;-93
2023/04/08 01:12:47;;;;;;;;;;;;;;;;;;5054179;28;45114;-92
2023/04/08 01:15:12;;;;;;;;;;;;;;;;;;5072693;28;42889;-93
2023/04/08 01:17:38;;;;;;;;;;;;;;;;;;5073594;28;43497;-92
2023/04/08 01:20:04;;;;;;;;;;;;;;;;;;5065177;28;42978;-89
2023/04/08 01:22:30;;;;;;;;;;;;;;;;;;5045914;28;44598;-89
2023/04/08 01:24:56;;;;;;;;;;;;;;;;;;5062996;28;43011;-90
2023/04/08 01:27:22;;;;;;;;;;;;;;;;;;5063816;28;42836;-88
2023/04/08 01:29:48;;;;;;;;;;;;;;;;;;5064241;28;42943;-92
2023/04/08 01:32:15;;;;;;;;;;;;;;;;;;5045696;28;45477;-92
2023/04/08 01:34:41;;;;;;;;;;;;;;;;;;5063319;28;43038;-90
2023/04/08 01:37:06;;;;;;;;;;;;;;;;;;5061121;28;44561;-88
2023/04/08 01:39:32;;;;;;;;;;;;;;;;;;5064301;28;43063;-91
2023/04/08 01:41:58;;;;;;;;;;;;;;;;;;5064122;28;43026;-91
2023/04/08 01:44:24;;;;;;;;;;;;;;;;;;5064925;28;42963;-91
2023/04/08 01:46:50;;;;;;;;;;;;;;;;;;5064074;28;43497;-92
2023/04/08 01:49:16;;;;;;;;;;;;;;;;;;5064769;28;42841;-92
2023/04/08 01:51:42;;;;;;;;;;;;;;;;;;5046560;28;44500;-94
2023/04/08 01:54:08;;;;;;;;;;;;;;;;;;5065133;28;42981;-94
2023/04/08 01:56:34;;;;;;;;;;;;;;;;;;5065299;28;43669;-93
2023/04/08 01:59:00;;;;;;;;;;;;;;;;;;5065184;28;42828;-93
2023/04/08 02:01:25;;;;;;;;;;;;;;;;;;5063905;28;42847;-90
2023/04/08 02:03:51;;;;;;;;;;;;;;;;;;5058056;28;42894;-92
2023/04/08 02:06:17;;;;;;;;;;;;;;;;;;5054734;28;43737;-94
2023/04/08 02:08:43;;;;;;;;;;;;;;;;;;5063826;28;43541;-90
2023/04/08 02:11:10;;;;;;;;;;;;;;;;;;5052414;28;43267;-91
2023/04/08 02:13:35;;;;;;;;;;;;;;;;;;5062904;28;43329;-90
2023/04/08 02:16:01;;;;;;;;;;;;;;;;;;5062828;28;43538;-88
2023/04/08 02:18:27;;;;;;;;;;;;;;;;;;5064082;28;42885;-91
2023/04/08 02:20:53;;;;;;;;;;;;;;;;;;5043223;28;45856;-92
2023/04/08 02:23:19;;;;;;;;;;;;;;;;;;5064825;28;42939;-91
2023/04/08 02:25:45;;;;;;;;;;;;;;;;;;5063587;28;43028;-89
2023/04/08 02:28:11;;;;;;;;;;;;;;;;;;5063177;28;42995;-86
2023/04/08 02:30:37;;;;;;;;;;;;;;;;;;5063935;28;43261;-85
2023/04/08 02:33:03;;;;;;;;;;;;;;;;;;5063911;28;43259;-84
2023/04/08 02:35:28;;;;;;;;;;;;;;;;;;5062497;28;42970;-91
2023/04/08 02:37:54;;;;;;;;;;;;;;;;;;5063020;28;43073;-89
2023/04/08 02:40:20;;;;;;;;;;;;;;;;;;5062718;28;43415;-91
2023/04/08 02:42:46;;;;;;;;;;;;;;;;;;5063452;28;42795;-91
2023/04/08 02:45:12;;;;;;;;;;;;;;;;;;5063263;28;43574;-91
2023/04/08 02:47:38;;;;;;;;;;;;;;;;;;5066882;28;42971;-84
2023/04/08 02:50:04;;;;;;;;;;;;;;;;;;5065611;28;43120;-90
2023/04/08 02:52:30;;;;;;;;;;;;;;;;;;5048564;28;43040;-92
2023/04/08 02:54:56;;;;;;;;;;;;;;;;;;5066694;28;43051;-93
2023/04/08 02:57:21;;;;;;;;;;;;;;;;;;5066995;28;43017;-89
2023/04/08 02:59:47;;;;;;;;;;;;;;;;;;5066753;28;43761;-92
2023/04/08 03:02:13;;;;;;;;;;;;;;;;;;5067354;28;43054;-94
2023/04/08 03:04:39;;;;;;;;;;;;;;;;;;5067385;28;43506;-86
2023/04/08 03:07:05;;;;;;;;;;;;;;;;;;5067045;28;42901;-84
2023/04/08 03:09:31;;;;;;;;;;;;;;;;;;5066239;28;43024;-92
2023/04/08 03:11:57;;;;;;;;;;;;;;;;;;5065825;28;42998;-92
2023/04/08 03:14:23;;;;;;;;;;;;;;;;;;5065936;28;43252;-86
2023/04/08 03:16:49;;;;;;;;;;;;;;;;;;5065897;28;42982;-89
2023/04/08 03:19:15;;;;;;;;;;;;;;;;;;5065913;28;43009;-88
2023/04/08 03:21:41;;;;;;;;;;;;;;;;;;5048252;28;43076;-92
2023/04/08 03:24:07;;;;;;;;;;;;;;;;;;5065891;28;44059;-88
2023/04/08 03:26:32;;;;;;;;;;;;;;;;;;5066472;28;43066;-93
2023/04/08 03:28:58;;;;;;;;;;;;;;;;;;5065418;28;43767;-93
2023/04/08 03:31:24;;;;;;;;;;;;;;;;;;5065267;28;42865;-92
2023/04/08 03:33:50;;;;;;;;;;;;;;;;;;5065227;28;43421;-89
2023/04/08 03:36:16;;;;;;;;;;;;;;;;;;5064812;28;43001;-93
2023/04/08 03:38:42;;;;;;;;;;;;;;;;;;5066161;28;43553;-93
2023/04/08 03:41:11;;;;;;;;;;;;;;;;;;5065533;28;42951;-94
2023/04/08 03:43:37;;;;;;;;;;;;;;;;;;5065333;28;43680;-94
2023/04/08 03:46:03;;;;;;;;;;;;;;;;;;5066389;28;42936;-87
2023/04/08 03:48:29;;;;;;;;;;;;;;;;;;5065567;28;44526;-86
2023/04/08 03:50:55;;;;;;;;;;;;;;;;;;5065763;28;43106;-84
2023/04/08 03:53:21;;;;;;;;;;;;;;;;;;5064585;28;43010;-88
2023/04/08 03:55:46;;;;;;;;;;;;;;;;;;5063862;28;43131;-83
2023/04/08 03:58:12;;;;;;;;;;;;;;;;;;5063694;28;43649;-87
2023/04/08 04:00:38;;;;;;;;;;;;;;;;;;5064627;28;43576;-88
2023/04/08 04:03:05;;;;;;;;;;;;;;;;;;5064906;28;43386;-88
2023/04/08 04:05:31;;;;;;;;;;;;;;;;;;5047246;28;42995;-86
2023/04/08 04:07:57;;;;;;;;;;;;;;;;;;5064723;28;43887;-88
2023/04/08 04:10:23;;;;;;;;;;;;;;;;;;5053798;28;42937;-88
2023/04/08 04:12:49;;;;;;;;;;;;;;;;;;5065330;28;43021;-93
2023/04/08 04:15:15;;;;;;;;;;;;;;;;;;5065724;28;42782;-92
2023/04/08 04:17:40;;;;;;;;;;;;;;;;;;5064673;28;43643;-90
2023/04/08 04:20:06;;;;;;;;;;;;;;;;;;5065083;28;43024;-91
2023/04/08 04:22:32;;;;;;;;;;;;;;;;;;5064309;28;43550;-89
2023/04/08 04:24:58;;;;;;;;;;;;;;;;;;5062905;28;42958;-88
2023/04/08 04:27:24;;;;;;;;;;;;;;;;;;5064585;28;43018;-94
2023/04/08 04:29:50;;;;;;;;;;;;;;;;;;5065753;28;42911;-91
2023/04/08 04:32:16;;;;;;;;;;;;;;;;;;5063377;28;43000;-92
2023/04/08 04:34:44;;;;;;;;;;;;;;;;;;5056072;28;42947;-84
2023/04/08 04:37:10;;;;;;;;;;;;;;;;;;5044311;28;44406;-87
2023/04/08 04:39:36;;;;;;;;;;;;;;;;;;5064807;28;42911;-89
2023/04/08 04:42:02;;;;;;;;;;;;;;;;;;5063866;28;43037;-88
2023/04/08 04:44:28;;;;;;;;;;;;;;;;;;5065190;28;43028;-89
2023/04/08 04:46:54;;;;;;;;;;;;;;;;;;5064175;28;43002;-86
2023/04/08 04:49:20;;;;;;;;;;;;;;;;;;5064594;28;43212;-83
2023/04/08 04:51:46;;;;;;;;;;;;;;;;;;5064707;28;44321;-90
2023/04/08 04:54:12;;;;;;;;;;;;;;;;;;5064438;28;43031;-83
2023/04/08 04:56:38;;;;;;;;;;;;;;;;;;5063491;28;42948;-85
2023/04/08 04:59:04;;;;;;;;;;;;;;;;;;5064099;28;42907;-91
2023/04/08 05:01:30;;;;;;;;;;;;;;;;;;5063367;28;42968;-90
2023/04/08 05:03:56;;;;;;;;;;;;;;;;;;5063921;28;42990;-89
2023/04/08 05:06:22;;;;;;;;;;;;;;;;;;5056070;28;43706;-83
2023/04/08 05:08:48;;;;;;;;;;;;;;;;;;5064159;28;43086;-90
2023/04/08 05:11:17;;;;;;;;;;;;;;;;;;5066286;28;43351;-84
2023/04/08 05:13:43;;;;;;;;;;;;;;;;;;5072332;28;42966;-92
2023/04/08 05:16:09;;;;;;;;;;;;;;;;;;5064383;28;43661;-92
2023/04/08 05:18:35;;;;;;;;;;;;;;;;;;5063018;28;42975;-93
2023/04/08 05:21:01;;;;;;;;;;;;;;;;;;5037683;28;43971;-90
2023/04/08 05:23:27;;;;;;;;;;;;;;;;;;5058066;28;42963;-89
2023/04/08 05:25:53;;;;;;;;;;;;;;;;;;5064045;28;42914;-89
2023/04/08 05:28:19;;;;;;;;;;;;;;;;;;5035984;28;43070;-92
2023/04/08 05:30:45;;;;;;;;;;;;;;;;;;5057986;28;43246;-83
2023/04/08 05:33:11;;;;;;;;;;;;;;;;;;5065799;28;42995;-84
2023/04/08 05:35:37;;;;;;;;;;;;;;;;;;5050553;28;43090;-84
2023/04/08 05:38:02;;;;;;;;;;;;;;;;;;5064588;28;43083;-88
2023/04/08 05:40:28;;;;;;;;;;;;;;;;;;5063940;28;42890;-83
2023/04/08 05:42:54;;;;;;;;;;;;;;;;;;5064026;28;42978;-84
2023/04/08 05:45:20;;;;;;;;;;;;;;;;;;5059081;28;43918;-87
2023/04/08 05:47:46;;;;;;;;;;;;;;;;;;5062405;28;43082;-87
2023/04/08 05:50:12;;;;;;;;;;;;;;;;;;5044725;28;43696;-86
2023/04/08 05:52:38;;;;;;;;;;;;;;;;;;5064562;28;42803;-85
2023/04/08 05:55:04;;;;;;;;;;;;;;;;;;5064113;28;43044;-86
2023/04/08 05:57:30;;;;;;;;;;;;;;;;;;5063950;28;42978;-85
2023/04/08 05:59:56;;;;;;;;;;;;;;;;;;5061662;28;44037;-86
2023/04/08 06:02:21;;;;;;;;;;;;;;;;;;5063199;28;43084;-86
2023/04/08 06:04:47;;;;;;;;;;;;;;;;;;5063329;28;43851;-87
2023/04/08 06:07:16;;;;;;;;;;;;;;;;;;5049106;28;42960;-91
2023/04/08 06:09:42;;;;;;;;;;;;;;;;;;5069575;28;43807;-90
2023/04/08 06:12:08;;;;;;;;;;;;;;;;;;5055051;28;43152;-84
2023/04/08 06:14:34;;;;;;;;;;;;;;;;;;5056515;28;43398;-91
2023/04/08 06:17:00;;;;;;;;;;;;;;;;;;5062547;28;43063;-86
2023/04/08 06:19:26;;;;;;;;;;;;;;;;;;5072291;28;43157;-86
2023/04/08 06:21:57;;;;;;;;;;;;;;;;;;5066212;28;43330;-89
2023/04/08 06:24:23;;;;;;;;;;;;;;;;;;5036492;28;43882;-87
2023/04/08 06:26:49;;;;;;;;;;;;;;;;;;5036684;28;42929;-85
2023/04/08 06:29:15;;;;;;;;;;;;;;;;;;5048800;28;43504;-83
2023/04/08 06:31:41;;;;;;;;;;;;;;;;;;5058077;28;42997;-83
2023/04/08 06:34:06;;;;;;;;;;;;;;;;;;5064608;28;42979;-85
2023/04/08 06:36:32;;;;;;;;;;;;;;;;;;5066769;28;42952;-82
2023/04/08 06:38:58;;;;;;;;;;;;;;;;;;5062112;28;43724;-82
2023/04/08 06:41:30;;;;;;;;;;;;;;;;;;5058552;28;42890;-82
2023/04/08 06:43:59;;;;;;;;;;;;;;;;;;5043834;28;45622;-83
2023/04/08 06:46:26;;;;;;;;;;;;;;;;;;5047970;28;42971;-84
2023/04/08 06:48:52;;;;;;;;;;;;;;;;;;5066293;28;43455;-91
2023/04/08 06:51:18;;;;;;;;;;;;;;;;;;5067188;28;42829;-91
2023/04/08 06:53:43;;;;;;;;;;;;;;;;;;5057716;28;43911;-84
2023/04/08 06:56:10;;;;;;;;;;;;;;;;;;5066167;28;42947;-82
2023/04/08 06:58:38;;;;;;;;;;;;;;;;;;5067895;28;42927;-92
2023/04/08 07:01:07;;;;;;;;;;;;;;;;;;5047111;28;43052;-90
2023/04/08 07:03:33;;;;;;;;;;;;;;;;;;5048165;28;44770;-89
2023/04/08 07:05:59;;;;;;;;;;;;;;;;;;5079106;28;42954;-83
2023/04/08 07:08:26;;;;;;;;;;;;;;;;;;5087305;28;43659;-82
2023/04/08 07:10:52;;;;;;;;;;;;;;;;;;5086510;28;42968;-82
2023/04/08 07:13:18;;;;;;;;;;;;;;;;;;5081144;28;43386;-82
2023/04/08 07:15:44;;;;;;;;;;;;;;;;;;5076755;28;42785;-83
2023/04/08 07:18:11;;;;;;;;;;;;;;;;;;5078151;28;42895;-83
2023/04/08 07:20:37;;;;;;;;;;;;;;;;;;5076023;28;42964;-82
2023/04/08 07:23:03;;;;;;;;;;;;;;;;;;5076005;28;43184;-83
2023/04/08 07:25:29;;;;;;;;;;;;;;;;;;5078272;28;43033;-82
2023/04/08 07:27:56;;;;;;;;;;;;;;;;;;5073045;28;43136;-84
2023/04/08 07:30:24;;;;;;;;;;;;;;;;;;5066058;28;43125;-82
2023/04/08 07:32:50;;;;;;;;;;;;;;;;;;5064074;28;43077;-82
2023/04/08 07:35:22;;;;;;;;;;;;;;;;;;5067070;28;42974;-82
2023/04/08 07:37:48;;;;;;;;;;;;;;;;;;5066843;28;42810;-84
2023/04/08 07:40:15;;;;;;;;;;;;;;;;;;5066294;28;43026;-83
2023/04/08 07:42:41;;;;;;;;;;;;;;;;;;5066856;28;42950;-83
2023/04/08 07:45:07;;;;;;;;;;;;;;;;;;5066851;28;42733;-83
2023/04/08 07:47:32;;;;;;;;;;;;;;;;;;5066789;28;43761;-82
2023/04/08 07:49:58;;;;;;;;;;;;;;;;;;5067194;28;42919;-83
2023/04/08 07:52:25;;;;;;;;;;;;;;;;;;5066852;28;43391;-82
2023/04/08 07:54:51;;;;;;;;;;;;;;;;;;5067003;28;42909;-82
2023/04/08 07:57:16;;;;;;;;;;;;;;;;;;5066589;28;43560;-82
2023/04/08 07:59:42;;;;;;;;;;;;;;;;;;5065974;28;42902;-83
2023/04/08 08:02:08;;;;;;;;;;;;;;;;;;5065234;28;42927;-82
2023/04/08 08:04:34;;;;;;;;;;;;;;;;;;5062474;28;42936;-82
2023/04/08 08:07:00;;;;;;;;;;;;;;;;;;5066195;28;42938;-84
2023/04/08 08:09:26;;;;;;;;;;;;;;;;;;5063004;28;42970;-85
2023/04/08 08:11:52;;;;;;;;;;;;;;;;;;5050003;28;44862;-87
2023/04/08 08:14:18;;;;;;;;;;;;;;;;;;5062941;28;43068;-83
2023/04/08 08:16:44;;;;;;;;;;;;;;;;;;5061802;28;42943;-81
2023/04/08 08:19:11;;;;;;;;;;;;;;;;;;5058464;28;42987;-82
2023/04/08 08:21:37;;;;;;;;;;;;;;;;;;5056028;28;44626;-84
2023/04/08 08:24:03;;;;;;;;;;;;;;;;;;5058525;28;43039;-82
2023/04/08 08:26:28;;;;;;;;;;;;;;;;;;5059186;28;43585;-82
2023/04/08 08:28:55;;;;;;;;;;;;;;;;;;5062424;28;43066;-83
2023/04/08 08:31:20;;;;;;;;;;;;;;;;;;5056805;28;42935;-84
2023/04/08 08:33:47;;;;;;;;;;;;;;;;;;5058891;28;43048;-80
2023/04/08 08:36:13;;;;;;;;;;;;;;;;;;5058255;28;43692;-81
2023/04/08 08:38:39;;;;;;;;;;;;;;;;;;5057337;28;43032;-82
2023/04/08 08:41:05;;;;;;;;;;;;;;;;;;5057995;28;42938;-87
2023/04/08 08:43:33;;;;;;;;;;;;;;;;;;5054407;28;43035;-81
2023/04/08 08:45:59;;;;;;;;;;;;;;;;;;5056483;28;43147;-79
2023/04/08 08:48:25;;;;;;;;;;;;;;;;;;5057884;28;42745;-79
2023/04/08 08:50:51;;;;;;;;;;;;;;;;;;5046159;28;44370;-79
2023/04/08 08:53:18;;;;;;;;;;;;;;;;;;5042210;28;43029;-79
2023/04/08 08:55:44;;;;;;;;;;;;;;;;;;5054043;28;42995;-80
2023/04/08 08:58:10;;;;;;;;;;;;;;;;;;5056069;28;43098;-80
2023/04/08 09:00:38;;;;;;;;;;;;;;;;;;5036479;28;43603;-83
2023/04/08 09:03:04;;;;;;;;;;;;;;;;;;5054880;28;42961;-83
2023/04/08 09:05:30;;;;;;;;;;;;;;;;;;5062474;22;43680;-86
2023/04/08 09:07:56;;;;;;;;;;;;;;;;;;5040467;28;42811;-85
2023/04/08 09:10:22;;;;;;;;;;;;;;;;;;5025571;28;43942;-85
2023/04/08 09:12:48;;;;;;;;;;;;;;;;;;5027282;28;43131;-84
2023/04/08 09:15:14;;;;;;;;;;;;;;;;;;5047947;28;43474;-82
2023/04/08 09:17:40;;;;;;;;;;;;;;;;;;5026198;28;42894;-83
2023/04/08 09:20:08;;;;;;;;;;;;;;;;;;5021139;28;45129;-82
2023/04/08 09:22:34;;;;;;;;;;;;;;;;;;5029158;28;42887;-82
2023/04/08 09:25:00;;;;;;;;;;;;;;;;;;5056596;28;43122;-82
2023/04/08 09:27:26;;;;;;;;;;;;;;;;;;5020735;28;43043;-82
2023/04/08 09:29:52;;;;;;;;;;;;;;;;;;5024591;28;44242;-81
2023/04/08 09:32:18;;;;;;;;;;;;;;;;;;5024964;28;43159;-84
2023/04/08 09:34:44;;;;;;;;;;;;;;;;;;5034604;28;43488;-80
2023/04/08 09:37:10;;;;;;;;;;;;;;;;;;5035429;28;43116;-78
2023/04/08 09:39:36;;;;;;;;;;;;;;;;;;5035373;28;44434;-75
2023/04/08 09:42:02;;;;;;;;;;;;;;;;;;5031772;28;42878;-87
2023/04/08 09:44:29;;;;;;;;;;;;;;;;;;5037216;28;43043;-80
2023/04/08 09:46:55;;;;;;;;;;;;;;;;;;5036638;28;43241;-79
2023/04/08 09:49:21;;;;;;;;;;;;;;;;;;5034907;28;42992;-81
2023/04/08 09:51:47;;;;;;;;;;;;;;;;;;5035504;28;42945;-80
2023/04/08 09:54:12;;;;;;;;;;;;;;;;;;5034199;28;43019;-80
2023/04/08 09:56:39;;;;;;;;;;;;;;;;;;5032336;28;43094;-81
2023/04/08 09:59:08;;;;;;;;;;;;;;;;;;5035041;28;43876;-81
2023/04/08 10:01:34;;;;;;;;;;;;;;;;;;5037603;28;42925;-78
2023/04/08 10:04:00;;;;;;;;;;;;;;;;;;5033760;28;44276;-79
2023/04/08 10:06:26;;;;;;;;;;;;;;;;;;5024198;28;42930;-79
2023/04/08 10:08:52;;;;;;;;;;;;;;;;;;5023539;28;42917;-81
2023/04/08 10:11:18;;;;;;;;;;;;;;;;;;5023757;28;43554;-80
2023/04/08 10:13:44;;;;;;;;;;;;;;;;;;5008927;28;45503;-82
2023/04/08 10:16:10;;;;;;;;;;;;;;;;;;5011590;28;43056;-82
2023/04/08 10:18:36;;;;;;;;;;;;;;;;;;5038262;28;43104;-84
2023/04/08 10:21:03;;;;;;;;;;;;;;;;;;5034799;28;42900;-81
2023/04/08 10:23:29;;;;;;;;;;;;;;;;;;5031725;28;43356;-80
2023/04/08 10:25:54;;;;;;;;;;;;;;;;;;5030496;28;43392;-81
2023/04/08 10:28:21;;;;;;;;;;;;;;;;;;5014304;28;45446;-79
2023/04/08 10:30:47;;;;;;;;;;;;;;;;;;5032376;28;42994;-78
2023/04/08 10:33:13;;;;;;;;;;;;;;;;;;5032281;28;43573;-79
2023/04/08 10:35:45;;;;;;;;;;;;;;;;;;5030861;28;42925;-76
2023/04/08 10:38:12;;;;;;;;;;;;;;;;;;5030514;28;43084;-78
2023/04/08 10:40:38;;;;;;;;;;;;;;;;;;5038981;28;42933;-78
2023/04/08 10:43:04;;;;;;;;;;;;;;;;;;5034857;28;44165;-81
2023/04/08 10:45:30;;;;;;;;;;;;;;;;;;5036147;28;43222;-81
2023/04/08 10:47:56;;;;;;;;;;;;;;;;;;5035492;28;43675;-76
2023/04/08 10:50:22;;;;;;;;;;;;;;;;;;5035793;28;43135;-78
2023/04/08 10:52:48;;;;;;;;;;;;;;;;;;5027958;28;42893;-78
2023/04/08 10:55:15;;;;;;;;;;;;;;;;;;5040057;28;43012;-87
2023/04/08 10:57:41;;;;;;;;;;;;;;;;;;5040121;28;45114;-80
2023/04/08 11:00:08;;;;;;;;;;;;;;;;;;5036107;28;43079;-85
2023/04/08 11:02:34;;;;;;;;;;;;;;;;;;5039911;28;43496;-86
2023/04/08 11:05:01;;;;;;;;;;;;;;;;;;5017727;28;43310;-79
2023/04/08 11:07:27;;;;;;;;;;;;;;;;;;5026197;28;45434;-81
2023/04/08 11:09:54;;;;;;;;;;;;;;;;;;5049010;28;42953;-84
2023/04/08 11:12:20;;;;;;;;;;;;;;;;;;5042905;28;43553;-83
2023/04/08 11:14:47;;;;;;;;;;;;;;;;;;5041099;28;43533;-77
2023/04/08 11:17:13;;;;;;;;;;;;;;;;;;5038948;28;44212;-80
2023/04/08 11:19:39;;;;;;;;;;;;;;;;;;5044935;28;43217;-84
2023/04/08 11:22:06;;;;;;;;;;;;;;;;;;5042001;28;44175;-82
2023/04/08 11:24:32;;;;;;;;;;;;;;;;;;5018983;28;42949;-84
2023/04/08 11:26:58;;;;;;;;;;;;;;;;;;5045458;28;43248;-81
2023/04/08 11:29:24;;;;;;;;;;;;;;;;;;5041959;28;43052;-82
2023/04/08 11:31:50;;;;;;;;;;;;;;;;;;5040199;28;42999;-81
2023/04/08 11:34:16;;;;;;;;;;;;;;;;;;5024598;28;43043;-82
2023/04/08 11:36:42;;;;;;;;;;;;;;;;;;5025314;28;45501;-81
2023/04/08 11:39:07;;;;;;;;;;;;;;;;;;5055276;28;43001;-82
2023/04/08 11:41:33;;;;;;;;;;;;;;;;;;5040197;28;44051;-83
2023/04/08 11:43:59;;;;;;;;;;;;;;;;;;5018710;28;42889;-77
2023/04/08 11:46:25;;;;;;;;;;;;;;;;;;5039536;28;42956;-78
2023/04/08 11:48:51;;;;;;;;;;;;;;;;;;5045568;28;42854;-77
2023/04/08 11:51:17;;;;;;;;;;;;;;;;;;5044174;28;42940;-81
2023/04/08 11:53:46;;;;;;;;;;;;;;;;;;5042600;28;42985;-78
2023/04/08 11:56:12;;;;;;;;;;;;;;;;;;5043231;28;43432;-78
2023/04/08 11:58:38;;;;;;;;;;;;;;;;;;5045045;28;42785;-80
2023/04/08 12:01:04;;;;;;;;;;;;;;;;;;5041661;28;45454;-78
2023/04/08 12:03:30;;;;;;;;;;;;;;;;;;5044545;28;43060;-79
2023/04/08 12:05:56;;;;;;;;;;;;;;;;;;5039060;28;42916;-81
2023/04/08 12:08:22;;;;;;;;;;;;;;;;;;5043443;28;42901;-83
2023/04/08 12:10:48;;;;;;;;;;;;;;;;;;5044159;28;43123;-82
2023/04/08 12:13:14;;;;;;;;;;;;;;;;;;5043961;28;43020;-82
2023/04/08 12:15:41;;;;;;;;;;;;;;;;;;5024495;28;44493;-81
2023/04/08 12:18:07;;;;;;;;;;;;;;;;;;5037391;28;43150;-85
2023/04/08 12:20:33;;;;;;;;;;;;;;;;;;5045012;28;44228;-80
2023/04/08 12:22:59;;;;;;;;;;;;;;;;;;5047478;28;42912;-82
2023/04/08 12:25:26;;;;;;;;;;;;;;;;;;5046139;28;43246;-79
2023/04/08 12:27:52;;;;;;;;;;;;;;;;;;5049110;28;43646;-78
2023/04/08 12:30:18;;;;;;;;;;;;;;;;;;5046656;28;43938;-79
2023/04/08 12:32:45;;;;;;;;;;;;;;;;;;5044208;28;42948;-78
2023/04/08 12:35:13;;;;;;;;;;;;;;;;;;5050318;28;64630;-78
2023/04/08 12:37:39;;;;;;;;;;;;;;;;;;5044642;28;42857;-79
2023/04/08 12:40:06;;;;;;;;;;;;;;;;;;5038777;28;44554;-79
2023/04/08 12:42:32;;;;;;;;;;;;;;;;;;5045688;28;43075;-79
2023/04/08 12:44:58;;;;;;;;;;;;;;;;;;5028199;28;44344;-77
2023/04/08 12:47:23;;;;;;;;;;;;;;;;;;5045742;28;43095;-79
2023/04/08 12:49:49;;;;;;;;;;;;;;;;;;5045343;28;44040;-79
2023/04/08 12:52:16;;;;;;;;;;;;;;;;;;5039185;28;43250;-79
2023/04/08 12:54:41;;;;;;;;;;;;;;;;;;5037180;28;43044;-84
2023/04/08 12:57:07;;;;;;;;;;;;;;;;;;5044388;28;43082;-84
2023/04/08 12:59:33;;;;;;;;;;;;;;;;;;5022284;28;45421;-81
2023/04/08 13:01:59;;;;;;;;;;;;;;;;;;5040446;28;43562;-82
2023/04/08 13:04:25;;;;;;;;;;;;;;;;;;5019543;28;44763;-80
2023/04/08 13:06:51;;;;;;;;;;;;;;;;;;5041457;28;43069;-81
2023/04/08 13:09:17;;;;;;;;;;;;;;;;;;5040506;28;42894;-82
2023/04/08 13:11:43;;;;;;;;;;;;;;;;;;5042739;28;43063;-81
2023/04/08 13:14:09;;;;;;;;;;;;;;;;;;5033682;28;43376;-80
2023/04/08 13:16:35;;;;;;;;;;;;;;;;;;5039012;28;43233;-80
2023/04/08 13:19:01;;;;;;;;;;;;;;;;;;5048772;28;43124;-81
2023/04/08 13:21:27;;;;;;;;;;;;;;;;;;5044795;28;42992;-80
2023/04/08 13:23:53;;;;;;;;;;;;;;;;;;5032794;28;44177;-82
2023/04/08 13:26:19;;;;;;;;;;;;;;;;;;5037411;28;43036;-81
2023/04/08 13:28:45;;;;;;;;;;;;;;;;;;5042292;28;42914;-81
2023/04/08 13:31:11;;;;;;;;;;;;;;;;;;5042014;28;43048;-81
2023/04/08 13:33:37;;;;;;;;;;;;;;;;;;5039577;28;43039;-81
2023/04/08 13:36:03;;;;;;;;;;;;;;;;;;5016212;28;42930;-82
2023/04/08 13:38:29;;;;;;;;;;;;;;;;;;5024286;28;45288;-81
2023/04/08 13:40:55;;;;;;;;;;;;;;;;;;5041385;28;42930;-81
2023/04/08 13:43:21;;;;;;;;;;;;;;;;;;5042057;28;43617;-81
2023/04/08 13:45:47;;;;;;;;;;;;;;;;;;5041020;28;42949;-81
2023/04/08 13:48:13;;;;;;;;;;;;;;;;;;5042745;28;42833;-81
2023/04/08 13:50:40;;;;;;;;;;;;;;;;;;5025479;28;43157;-81
2023/04/08 13:53:06;;;;;;;;;;;;;;;;;;5037971;28;42964;-81
2023/04/08 13:55:32;;;;;;;;;;;;;;;;;;5042419;28;43027;-81
2023/04/08 13:57:58;;;;;;;;;;;;;;;;;;5043050;28;43681;-81
2023/04/08 14:00:24;;;;;;;;;;;;;;;;;;5039309;28;43232;-81
2023/04/08 14:02:50;;;;;;;;;;;;;;;;;;5039772;28;43698;-81
2023/04/08 14:05:16;;;;;;;;;;;;;;;;;;5037099;28;43274;-82
2023/04/08 14:07:42;;;;;;;;;;;;;;;;;;5012330;28;44035;-79
2023/04/08 14:10:08;;;;;;;;;;;;;;;;;;5042517;28;42922;-81
2023/04/08 14:12:34;;;;;;;;;;;;;;;;;;5042090;28;42731;-80
2023/04/08 14:15:01;;;;;;;;;;;;;;;;;;5035977;28;43388;-80
2023/04/08 14:17:27;;;;;;;;;;;;;;;;;;5030083;28;43550;-80
2023/04/08 14:19:53;;;;;;;;;;;;;;;;;;5035970;28;43256;-79
2023/04/08 14:22:19;;;;;;;;;;;;;;;;;;5038396;28;43023;-80
2023/04/08 14:24:45;;;;;;;;;;;;;;;;;;5042034;28;42841;-79
2023/04/08 14:27:11;;;;;;;;;;;;;;;;;;5038988;28;43328;-78
2023/04/08 14:29:37;;;;;;;;;;;;;;;;;;5037549;28;42944;-77
2023/04/08 14:32:03;;;;;;;;;;;;;;;;;;5039949;28;42936;-79
2023/04/08 14:34:29;;;;;;;;;;;;;;;;;;5040313;28;43462;-77
2023/04/08 14:36:55;;;;;;;;;;;;;;;;;;5019509;28;44889;-79
2023/04/08 14:39:21;;;;;;;;;;;;;;;;;;5041253;28;43023;-81
2023/04/08 14:41:47;;;;;;;;;;;;;;;;;;5014403;28;42988;-80
2023/04/08 14:44:12;;;;;;;;;;;;;;;;;;5018369;28;43173;-80
2023/04/08 14:46:38;;;;;;;;;;;;;;;;;;5044925;28;43182;-80
2023/04/08 14:49:04;;;;;;;;;;;;;;;;;;5035044;28;43163;-79
2023/04/08 14:51:31;;;;;;;;;;;;;;;;;;5046301;28;43653;-80
2023/04/08 14:53:57;;;;;;;;;;;;;;;;;;5040665;28;43598;-80
2023/04/08 14:56:23;;;;;;;;;;;;;;;;;;5056123;28;43536;-79
2023/04/08 14:58:58;;;;;;;;;;;;;;;;;;5051945;28;42928;-81
2023/04/08 15:01:24;;;;;;;;;;;;;;;;;;5020549;28;43995;-78
2023/04/08 15:03:50;;;;;;;;;;;;;;;;;;5033072;28;43223;-80
2023/04/08 15:06:17;;;;;;;;;;;;;;;;;;5039489;28;42945;-80
2023/04/08 15:08:44;;;;;;;;;;;;;;;;;;5043088;28;43274;-80
2023/04/08 15:11:10;;;;;;;;;;;;;;;;;;5028127;28;44261;-78
2023/04/08 15:13:36;;;;;;;;;;;;;;;;;;5043836;28;44356;-78
2023/04/08 15:16:04;;;;;;;;;;;;;;;;;;5039098;28;43460;-76
2023/04/08 15:18:30;;;;;;;;;;;;;;;;;;5040810;28;43287;-79
2023/04/08 15:20:56;;;;;;;;;;;;;;;;;;5039184;28;43159;-80
2023/04/08 15:23:22;;;;;;;;;;;;;;;;;;5021534;28;43279;-81
2023/04/08 15:25:48;;;;;;;;;;;;;;;;;;5038799;28;44146;-79
2023/04/08 15:28:14;;;;;;;;;;;;;;;;;;5019619;28;43042;-78
2023/04/08 15:30:40;;;;;;;;;;;;;;;;;;5041539;28;43290;-77
2023/04/08 15:33:06;;;;;;;;;;;;;;;;;;5046197;28;43026;-79
2023/04/08 15:35:32;;;;;;;;;;;;;;;;;;5048706;28;42920;-80
2023/04/08 15:37:59;;;;;;;;;;;;;;;;;;5040843;28;42988;-80
2023/04/08 15:40:25;;;;;;;;;;;;;;;;;;5038265;28;43028;-81
2023/04/08 15:42:51;;;;;;;;;;;;;;;;;;5044125;28;43282;-80
2023/04/08 15:45:17;;;;;;;;;;;;;;;;;;5044129;28;43352;-81
2023/04/08 15:47:43;;;;;;;;;;;;;;;;;;5026598;28;43067;-81
2023/04/08 15:50:09;;;;;;;;;;;;;;;;;;5040635;28;42962;-81
2023/04/08 15:52:35;;;;;;;;;;;;;;;;;;5041432;28;44083;-81
2023/04/08 15:55:01;;;;;;;;;;;;;;;;;;5040325;28;43484;-79
2023/04/08 15:57:27;;;;;;;;;;;;;;;;;;5037739;28;42948;-79
2023/04/08 15:59:53;;;;;;;;;;;;;;;;;;5033213;28;43651;-81
2023/04/08 16:02:19;;;;;;;;;;;;;;;;;;5040463;28;42914;-80
2023/04/08 16:04:45;;;;;;;;;;;;;;;;;;5042754;28;43502;-79
2023/04/08 16:07:12;;;;;;;;;;;;;;;;;;5012782;28;42991;-90
2023/04/08 16:09:38;;;;;;;;;;;;;;;;;;5010582;28;43900;-80
2023/04/08 16:12:04;;;;;;;;;;;;;;;;;;5016093;28;43011;-88
2023/04/08 16:14:30;;;;;;;;;;;;;;;;;;5016559;28;42999;-81
2023/04/08 16:16:56;;;;;;;;;;;;;;;;;;5016962;28;43743;-84
2023/04/08 16:19:22;;;;;;;;;;;;;;;;;;5012221;28;43436;-90
2023/04/08 16:21:48;;;;;;;;;;;;;;;;;;5015669;28;42999;-83
2023/04/08 16:24:14;;;;;;;;;;;;;;;;;;4997181;28;43737;-87
2023/04/08 16:26:40;;;;;;;;;;;;;;;;;;5000898;28;43240;-91
2023/04/08 16:29:07;;;;;;;;;;;;;;;;;;5013250;28;43428;-84
2023/04/08 16:31:33;;;;;;;;;;;;;;;;;;5017323;28;43058;-83
2023/04/08 16:33:59;;;;;;;;;;;;;;;;;;5023417;28;43104;-84
2023/04/08 16:36:24;;;;;;;;;;;;;;;;;;5003944;28;43149;-83
2023/04/08 16:38:52;;;;;;;;;;;;;;;;;;5022823;28;43041;-83